sensor_id;sensor_type;location;lat;lon;timestamp;P1;durP1;ratioP1;P2;durP2;ratioP2
33740;SDS011;20065;48.380;10.892;2022-12-07T00:00:44;19.73;;;11.00;;
33740;SDS011;20065;48.380;10.892;2022-12-07T00:03:30;15.95;;;10.65;;
33740;SDS011;20065;48.380;10.892;2022-12-07T00:06:17;15.70;;;10.50;;
33740;SDS011;20065;48.380;10.892;2022-12-07T00:09:04;18.33;;;10.70;;
33740;SDS011;20065;48.380;10.892;2022-12-07T00:11:51;18.48;;;11.27;;
33740;SDS011;20065;48.380;10.892;2022-12-07T00:14:37;16.85;;;10.45;;
33740;SDS011;20065;48.380;10.892;2022-12-07T00:17:23;16.77;;;10.32;;
33740;SDS011;20065;48.380;10.892;2022-12-07T00:20:10;17.55;;;11.20;;
33740;SDS011;20065;48.380;10.892;2022-12-07T00:22:56;18.30;;;11.15;;
33740;SDS011;20065;48.380;10.892;2022-12-07T00:25:42;16.02;;;10.07;;
33740;SDS011;20065;48.380;10.892;2022-12-07T00:28:32;17.10;;;11.10;;
33740;SDS011;20065;48.380;10.892;2022-12-07T00:31:19;17.98;;;11.27;;
33740;SDS011;20065;48.380;10.892;2022-12-07T00:34:10;16.58;;;10.30;;
33740;SDS011;20065;48.380;10.892;2022-12-07T00:36:59;15.48;;;9.93;;
33740;SDS011;20065;48.380;10.892;2022-12-07T00:39:45;16.73;;;10.13;;
33740;SDS011;20065;48.380;10.892;2022-12-07T00:42:33;16.90;;;11.18;;
33740;SDS011;20065;48.380;10.892;2022-12-07T00:45:19;18.20;;;10.95;;
33740;SDS011;20065;48.380;10.892;2022-12-07T00:48:05;17.60;;;10.80;;
33740;SDS011;20065;48.380;10.892;2022-12-07T00:50:51;18.50;;;12.32;;
33740;SDS011;20065;48.380;10.892;2022-12-07T00:53:38;17.05;;;10.23;;
33740;SDS011;20065;48.380;10.892;2022-12-07T00:56:25;16.52;;;11.55;;
33740;SDS011;20065;48.380;10.892;2022-12-07T00:59:13;16.60;;;10.25;;
33740;SDS011;20065;48.380;10.892;2022-12-07T01:02:00;17.52;;;10.15;;
33740;SDS011;20065;48.380;10.892;2022-12-07T01:04:46;15.45;;;9.90;;
33740;SDS011;20065;48.380;10.892;2022-12-07T01:07:32;16.17;;;10.68;;
33740;SDS011;20065;48.380;10.892;2022-12-07T01:10:19;15.73;;;10.82;;
33740;SDS011;20065;48.380;10.892;2022-12-07T01:13:07;16.40;;;10.50;;
33740;SDS011;20065;48.380;10.892;2022-12-07T01:15:56;14.98;;;9.88;;
33740;SDS011;20065;48.380;10.892;2022-12-07T01:18:47;17.98;;;9.75;;
33740;SDS011;20065;48.380;10.892;2022-12-07T01:21:35;19.52;;;11.25;;
33740;SDS011;20065;48.380;10.892;2022-12-07T01:24:22;14.85;;;9.73;;
33740;SDS011;20065;48.380;10.892;2022-12-07T01:27:09;16.02;;;10.95;;
33740;SDS011;20065;48.380;10.892;2022-12-07T01:29:55;16.42;;;10.40;;
33740;SDS011;20065;48.380;10.892;2022-12-07T01:32:41;14.27;;;10.00;;
33740;SDS011;20065;48.380;10.892;2022-12-07T01:35:27;21.60;;;11.80;;
33740;SDS011;20065;48.380;10.892;2022-12-07T01:38:13;17.15;;;11.35;;
33740;SDS011;20065;48.380;10.892;2022-12-07T01:41:00;15.18;;;10.88;;
33740;SDS011;20065;48.380;10.892;2022-12-07T01:47:11;15.95;;;9.93;;
33740;SDS011;20065;48.380;10.892;2022-12-07T01:49:58;19.05;;;11.38;;
33740;SDS011;20065;48.380;10.892;2022-12-07T01:52:45;14.80;;;10.30;;
33740;SDS011;20065;48.380;10.892;2022-12-07T01:55:34;17.30;;;10.88;;
33740;SDS011;20065;48.380;10.892;2022-12-07T01:58:23;17.15;;;11.55;;
33740;SDS011;20065;48.380;10.892;2022-12-07T02:01:10;16.10;;;11.18;;
33740;SDS011;20065;48.380;10.892;2022-12-07T02:03:57;16.33;;;10.95;;
33740;SDS011;20065;48.380;10.892;2022-12-07T02:06:44;17.27;;;11.00;;
33740;SDS011;20065;48.380;10.892;2022-12-07T02:09:31;17.88;;;11.02;;
33740;SDS011;20065;48.380;10.892;2022-12-07T02:12:17;17.02;;;10.32;;
33740;SDS011;20065;48.380;10.892;2022-12-07T02:15:04;17.88;;;11.38;;
33740;SDS011;20065;48.380;10.892;2022-12-07T02:30:10;17.15;;;11.35;;
33740;SDS011;20065;48.380;10.892;2022-12-07T02:33:04;20.20;;;12.13;;
33740;SDS011;20065;48.380;10.892;2022-12-07T02:38:50;16.83;;;10.90;;
33740;SDS011;20065;48.380;10.892;2022-12-07T02:41:47;15.40;;;9.80;;
33740;SDS011;20065;48.380;10.892;2022-12-07T02:44:41;16.20;;;10.13;;
33740;SDS011;20065;48.380;10.892;2022-12-07T02:47:27;15.95;;;9.20;;
33740;SDS011;20065;48.380;10.892;2022-12-07T02:50:15;16.95;;;10.57;;
33740;SDS011;20065;48.380;10.892;2022-12-07T02:53:05;16.38;;;10.60;;
33740;SDS011;20065;48.380;10.892;2022-12-07T02:55:51;18.80;;;10.02;;
33740;SDS011;20065;48.380;10.892;2022-12-07T03:04:32;17.95;;;10.80;;
33740;SDS011;20065;48.380;10.892;2022-12-07T03:16:32;21.15;;;11.73;;
33740;SDS011;20065;48.380;10.892;2022-12-07T03:19:22;18.75;;;11.25;;
33740;SDS011;20065;48.380;10.892;2022-12-07T03:22:12;19.42;;;12.20;;
33740;SDS011;20065;48.380;10.892;2022-12-07T03:25:00;16.30;;;11.05;;
33740;SDS011;20065;48.380;10.892;2022-12-07T03:28:01;16.13;;;10.68;;
33740;SDS011;20065;48.380;10.892;2022-12-07T03:30:52;15.13;;;10.30;;
33740;SDS011;20065;48.380;10.892;2022-12-07T03:37:04;17.27;;;12.40;;
33740;SDS011;20065;48.380;10.892;2022-12-07T03:42:52;18.52;;;11.23;;
33740;SDS011;20065;48.380;10.892;2022-12-07T03:45:41;16.92;;;11.70;;
33740;SDS011;20065;48.380;10.892;2022-12-07T03:48:34;16.75;;;11.48;;
33740;SDS011;20065;48.380;10.892;2022-12-07T03:51:30;16.27;;;11.00;;
33740;SDS011;20065;48.380;10.892;2022-12-07T03:54:31;22.15;;;13.50;;
33740;SDS011;20065;48.380;10.892;2022-12-07T03:57:27;18.35;;;13.50;;
33740;SDS011;20065;48.380;10.892;2022-12-07T04:00:15;21.15;;;12.65;;
33740;SDS011;20065;48.380;10.892;2022-12-07T04:03:03;18.63;;;12.18;;
33740;SDS011;20065;48.380;10.892;2022-12-07T04:05:49;21.08;;;13.70;;
33740;SDS011;20065;48.380;10.892;2022-12-07T04:08:35;16.33;;;11.10;;
33740;SDS011;20065;48.380;10.892;2022-12-07T04:11:21;17.88;;;12.05;;
33740;SDS011;20065;48.380;10.892;2022-12-07T04:14:08;17.85;;;12.35;;
33740;SDS011;20065;48.380;10.892;2022-12-07T04:17:06;18.38;;;11.85;;
33740;SDS011;20065;48.380;10.892;2022-12-07T04:19:52;20.95;;;13.88;;
33740;SDS011;20065;48.380;10.892;2022-12-07T04:22:38;23.63;;;12.95;;
33740;SDS011;20065;48.380;10.892;2022-12-07T04:25:24;20.98;;;13.10;;
33740;SDS011;20065;48.380;10.892;2022-12-07T04:28:10;20.25;;;12.55;;
33740;SDS011;20065;48.380;10.892;2022-12-07T04:30:56;20.40;;;13.40;;
33740;SDS011;20065;48.380;10.892;2022-12-07T04:33:43;19.45;;;13.90;;
33740;SDS011;20065;48.380;10.892;2022-12-07T04:36:29;21.30;;;13.70;;
33740;SDS011;20065;48.380;10.892;2022-12-07T04:39:20;21.38;;;13.63;;
33740;SDS011;20065;48.380;10.892;2022-12-07T04:42:11;22.95;;;14.52;;
33740;SDS011;20065;48.380;10.892;2022-12-07T04:45:01;27.42;;;14.40;;
33740;SDS011;20065;48.380;10.892;2022-12-07T04:47:47;22.40;;;13.40;;
33740;SDS011;20065;48.380;10.892;2022-12-07T04:50:33;21.13;;;14.15;;
33740;SDS011;20065;48.380;10.892;2022-12-07T04:53:21;23.38;;;14.85;;
33740;SDS011;20065;48.380;10.892;2022-12-07T04:56:07;22.85;;;14.40;;
33740;SDS011;20065;48.380;10.892;2022-12-07T04:58:53;22.35;;;14.55;;
33740;SDS011;20065;48.380;10.892;2022-12-07T05:01:40;26.20;;;14.05;;
33740;SDS011;20065;48.380;10.892;2022-12-07T05:04:26;23.48;;;13.95;;
33740;SDS011;20065;48.380;10.892;2022-12-07T05:07:12;23.95;;;14.45;;
33740;SDS011;20065;48.380;10.892;2022-12-07T05:09:58;23.83;;;15.63;;
33740;SDS011;20065;48.380;10.892;2022-12-07T05:12:44;22.40;;;15.68;;
33740;SDS011;20065;48.380;10.892;2022-12-07T05:15:31;21.95;;;14.27;;
33740;SDS011;20065;48.380;10.892;2022-12-07T05:18:17;25.08;;;15.98;;
33740;SDS011;20065;48.380;10.892;2022-12-07T05:21:03;24.23;;;15.27;;
33740;SDS011;20065;48.380;10.892;2022-12-07T05:23:50;23.75;;;14.77;;
33740;SDS011;20065;48.380;10.892;2022-12-07T05:26:36;25.17;;;14.18;;
33740;SDS011;20065;48.380;10.892;2022-12-07T05:29:23;24.17;;;14.98;;
33740;SDS011;20065;48.380;10.892;2022-12-07T05:32:09;22.55;;;15.55;;
33740;SDS011;20065;48.380;10.892;2022-12-07T05:34:55;22.25;;;13.82;;
33740;SDS011;20065;48.380;10.892;2022-12-07T05:37:41;26.00;;;15.15;;
33740;SDS011;20065;48.380;10.892;2022-12-07T05:40:27;25.63;;;15.60;;
33740;SDS011;20065;48.380;10.892;2022-12-07T05:43:13;22.02;;;14.40;;
33740;SDS011;20065;48.380;10.892;2022-12-07T05:45:59;22.65;;;14.02;;
33740;SDS011;20065;48.380;10.892;2022-12-07T05:48:46;21.77;;;14.30;;
33740;SDS011;20065;48.380;10.892;2022-12-07T05:51:32;23.88;;;15.85;;
33740;SDS011;20065;48.380;10.892;2022-12-07T05:54:18;23.67;;;14.32;;
33740;SDS011;20065;48.380;10.892;2022-12-07T05:57:05;24.88;;;14.63;;
33740;SDS011;20065;48.380;10.892;2022-12-07T05:59:51;25.42;;;16.20;;
33740;SDS011;20065;48.380;10.892;2022-12-07T06:02:37;29.30;;;15.90;;
33740;SDS011;20065;48.380;10.892;2022-12-07T06:05:23;26.20;;;15.43;;
33740;SDS011;20065;48.380;10.892;2022-12-07T06:08:10;25.88;;;16.42;;
33740;SDS011;20065;48.380;10.892;2022-12-07T06:10:56;28.55;;;17.30;;
33740;SDS011;20065;48.380;10.892;2022-12-07T06:14:00;26.20;;;17.00;;
33740;SDS011;20065;48.380;10.892;2022-12-07T06:16:46;27.95;;;16.10;;
33740;SDS011;20065;48.380;10.892;2022-12-07T06:19:33;26.20;;;16.38;;
33740;SDS011;20065;48.380;10.892;2022-12-07T06:22:19;27.63;;;16.88;;
33740;SDS011;20065;48.380;10.892;2022-12-07T06:25:05;27.38;;;15.75;;
33740;SDS011;20065;48.380;10.892;2022-12-07T06:27:52;27.98;;;16.40;;
33740;SDS011;20065;48.380;10.892;2022-12-07T06:30:40;24.75;;;15.00;;
33740;SDS011;20065;48.380;10.892;2022-12-07T06:33:27;28.75;;;17.00;;
33740;SDS011;20065;48.380;10.892;2022-12-07T06:36:14;23.67;;;14.27;;
33740;SDS011;20065;48.380;10.892;2022-12-07T06:39:00;25.58;;;14.98;;
33740;SDS011;20065;48.380;10.892;2022-12-07T06:41:46;28.23;;;17.13;;
33740;SDS011;20065;48.380;10.892;2022-12-07T06:44:33;30.02;;;17.20;;
33740;SDS011;20065;48.380;10.892;2022-12-07T06:47:19;29.63;;;17.25;;
33740;SDS011;20065;48.380;10.892;2022-12-07T06:50:05;27.98;;;16.42;;
33740;SDS011;20065;48.380;10.892;2022-12-07T06:52:53;30.65;;;18.38;;
33740;SDS011;20065;48.380;10.892;2022-12-07T06:55:39;30.50;;;16.73;;
33740;SDS011;20065;48.380;10.892;2022-12-07T06:58:25;35.17;;;19.73;;
33740;SDS011;20065;48.380;10.892;2022-12-07T07:01:12;31.77;;;18.20;;
33740;SDS011;20065;48.380;10.892;2022-12-07T07:04:00;31.88;;;19.30;;
33740;SDS011;20065;48.380;10.892;2022-12-07T07:06:46;31.40;;;16.95;;
33740;SDS011;20065;48.380;10.892;2022-12-07T07:09:32;30.13;;;15.75;;
33740;SDS011;20065;48.380;10.892;2022-12-07T07:12:19;36.45;;;18.88;;
33740;SDS011;20065;48.380;10.892;2022-12-07T07:15:05;35.97;;;20.50;;
33740;SDS011;20065;48.380;10.892;2022-12-07T07:17:51;41.75;;;20.52;;
33740;SDS011;20065;48.380;10.892;2022-12-07T07:20:38;39.65;;;19.73;;
33740;SDS011;20065;48.380;10.892;2022-12-07T07:23:25;38.78;;;20.17;;
33740;SDS011;20065;48.380;10.892;2022-12-07T07:26:11;33.05;;;19.15;;
33740;SDS011;20065;48.380;10.892;2022-12-07T07:28:57;33.20;;;18.83;;
33740;SDS011;20065;48.380;10.892;2022-12-07T07:31:43;32.17;;;17.45;;
33740;SDS011;20065;48.380;10.892;2022-12-07T07:34:30;31.05;;;18.13;;
33740;SDS011;20065;48.380;10.892;2022-12-07T07:37:16;36.35;;;18.52;;
33740;SDS011;20065;48.380;10.892;2022-12-07T07:40:02;34.63;;;19.77;;
33740;SDS011;20065;48.380;10.892;2022-12-07T07:42:49;31.30;;;17.58;;
33740;SDS011;20065;48.380;10.892;2022-12-07T07:45:36;33.72;;;19.73;;
33740;SDS011;20065;48.380;10.892;2022-12-07T07:48:22;30.98;;;18.08;;
33740;SDS011;20065;48.380;10.892;2022-12-07T07:51:10;40.53;;;19.35;;
33740;SDS011;20065;48.380;10.892;2022-12-07T07:53:56;36.00;;;17.08;;
33740;SDS011;20065;48.380;10.892;2022-12-07T07:56:42;33.97;;;20.45;;
33740;SDS011;20065;48.380;10.892;2022-12-07T07:59:29;32.70;;;19.00;;
33740;SDS011;20065;48.380;10.892;2022-12-07T08:02:16;29.65;;;17.48;;
33740;SDS011;20065;48.380;10.892;2022-12-07T08:05:03;37.33;;;20.77;;
33740;SDS011;20065;48.380;10.892;2022-12-07T08:07:49;36.00;;;18.70;;
33740;SDS011;20065;48.380;10.892;2022-12-07T08:10:35;36.58;;;19.63;;
33740;SDS011;20065;48.380;10.892;2022-12-07T08:13:22;32.05;;;18.20;;
33740;SDS011;20065;48.380;10.892;2022-12-07T08:16:09;34.42;;;18.88;;
33740;SDS011;20065;48.380;10.892;2022-12-07T08:18:56;34.58;;;18.67;;
33740;SDS011;20065;48.380;10.892;2022-12-07T08:21:43;33.92;;;19.40;;
33740;SDS011;20065;48.380;10.892;2022-12-07T08:24:29;28.85;;;17.08;;
33740;SDS011;20065;48.380;10.892;2022-12-07T08:27:15;32.22;;;17.58;;
33740;SDS011;20065;48.380;10.892;2022-12-07T08:30:01;30.60;;;17.42;;
33740;SDS011;20065;48.380;10.892;2022-12-07T08:32:48;27.65;;;17.17;;
33740;SDS011;20065;48.380;10.892;2022-12-07T08:35:34;34.10;;;17.80;;
33740;SDS011;20065;48.380;10.892;2022-12-07T08:38:21;31.67;;;16.70;;
33740;SDS011;20065;48.380;10.892;2022-12-07T08:41:07;31.27;;;17.98;;
33740;SDS011;20065;48.380;10.892;2022-12-07T08:43:53;29.38;;;17.20;;
33740;SDS011;20065;48.380;10.892;2022-12-07T08:46:45;25.60;;;15.32;;
33740;SDS011;20065;48.380;10.892;2022-12-07T08:49:39;24.38;;;14.00;;
33740;SDS011;20065;48.380;10.892;2022-12-07T08:52:27;27.58;;;16.55;;
33740;SDS011;20065;48.380;10.892;2022-12-07T08:55:15;24.48;;;15.05;;
33740;SDS011;20065;48.380;10.892;2022-12-07T08:58:02;21.17;;;12.38;;
33740;SDS011;20065;48.380;10.892;2022-12-07T09:00:49;21.38;;;13.02;;
33740;SDS011;20065;48.380;10.892;2022-12-07T09:03:35;21.20;;;13.02;;
33740;SDS011;20065;48.380;10.892;2022-12-07T09:06:21;20.17;;;12.70;;
33740;SDS011;20065;48.380;10.892;2022-12-07T09:09:07;18.25;;;11.93;;
33740;SDS011;20065;48.380;10.892;2022-12-07T09:11:55;19.65;;;12.45;;
33740;SDS011;20065;48.380;10.892;2022-12-07T09:14:41;20.52;;;13.68;;
33740;SDS011;20065;48.380;10.892;2022-12-07T09:17:31;19.85;;;13.15;;
33740;SDS011;20065;48.380;10.892;2022-12-07T09:20:18;17.60;;;11.30;;
33740;SDS011;20065;48.380;10.892;2022-12-07T09:23:05;16.67;;;10.00;;
33740;SDS011;20065;48.380;10.892;2022-12-07T09:25:52;19.08;;;11.38;;
33740;SDS011;20065;48.380;10.892;2022-12-07T09:28:38;19.38;;;12.25;;
33740;SDS011;20065;48.380;10.892;2022-12-07T09:31:25;18.20;;;10.77;;
33740;SDS011;20065;48.380;10.892;2022-12-07T09:34:11;17.58;;;11.70;;
33740;SDS011;20065;48.380;10.892;2022-12-07T09:36:58;18.95;;;11.48;;
33740;SDS011;20065;48.380;10.892;2022-12-07T09:39:47;17.02;;;11.88;;
33740;SDS011;20065;48.380;10.892;2022-12-07T09:42:35;21.52;;;12.57;;
33740;SDS011;20065;48.380;10.892;2022-12-07T09:45:34;22.48;;;13.35;;
33740;SDS011;20065;48.380;10.892;2022-12-07T09:48:36;21.25;;;12.13;;
33740;SDS011;20065;48.380;10.892;2022-12-07T09:51:24;20.70;;;12.45;;
33740;SDS011;20065;48.380;10.892;2022-12-07T09:54:14;15.50;;;11.43;;
33740;SDS011;20065;48.380;10.892;2022-12-07T09:57:02;15.48;;;9.50;;
33740;SDS011;20065;48.380;10.892;2022-12-07T09:59:48;16.48;;;10.35;;
33740;SDS011;20065;48.380;10.892;2022-12-07T10:02:36;15.05;;;10.27;;
33740;SDS011;20065;48.380;10.892;2022-12-07T10:05:28;13.57;;;9.23;;
33740;SDS011;20065;48.380;10.892;2022-12-07T10:08:18;14.60;;;9.95;;
33740;SDS011;20065;48.380;10.892;2022-12-07T10:11:04;16.42;;;9.60;;
33740;SDS011;20065;48.380;10.892;2022-12-07T10:13:55;23.75;;;10.55;;
33740;SDS011;20065;48.380;10.892;2022-12-07T10:16:57;13.60;;;9.18;;
33740;SDS011;20065;48.380;10.892;2022-12-07T10:19:44;15.73;;;10.13;;
33740;SDS011;20065;48.380;10.892;2022-12-07T10:22:30;17.58;;;10.07;;
33740;SDS011;20065;48.380;10.892;2022-12-07T10:25:18;15.40;;;9.75;;
33740;SDS011;20065;48.380;10.892;2022-12-07T10:28:18;14.13;;;7.20;;
33740;SDS011;20065;48.380;10.892;2022-12-07T10:31:15;14.90;;;7.15;;
33740;SDS011;20065;48.380;10.892;2022-12-07T10:34:12;11.48;;;7.47;;
33740;SDS011;20065;48.380;10.892;2022-12-07T10:40:18;10.25;;;7.28;;
33740;SDS011;20065;48.380;10.892;2022-12-07T10:43:19;10.50;;;6.45;;
33740;SDS011;20065;48.380;10.892;2022-12-07T11:11:16;12.05;;;6.95;;
33740;SDS011;20065;48.380;10.892;2022-12-07T11:14:10;13.45;;;7.75;;
33740;SDS011;20065;48.380;10.892;2022-12-07T11:26:06;13.00;;;7.78;;
33740;SDS011;20065;48.380;10.892;2022-12-07T11:32:40;12.23;;;7.57;;
33740;SDS011;20065;48.380;10.892;2022-12-07T11:41:45;12.55;;;7.28;;
33740;SDS011;20065;48.380;10.892;2022-12-07T11:44:40;13.32;;;8.18;;
33740;SDS011;20065;48.380;10.892;2022-12-07T11:50:54;15.23;;;8.10;;
33740;SDS011;20065;48.380;10.892;2022-12-07T11:53:44;14.05;;;8.75;;
33740;SDS011;20065;48.380;10.892;2022-12-07T11:56:41;18.08;;;8.95;;
33740;SDS011;20065;48.380;10.892;2022-12-07T11:59:39;15.70;;;8.27;;
33740;SDS011;20065;48.380;10.892;2022-12-07T12:02:33;13.32;;;7.90;;
33740;SDS011;20065;48.380;10.892;2022-12-07T12:05:41;13.60;;;7.43;;
33740;SDS011;20065;48.380;10.892;2022-12-07T12:08:29;13.60;;;7.57;;
33740;SDS011;20065;48.380;10.892;2022-12-07T12:23:40;8.95;;;5.07;;
33740;SDS011;20065;48.380;10.892;2022-12-07T12:26:28;7.72;;;4.45;;
33740;SDS011;20065;48.380;10.892;2022-12-07T12:29:39;10.20;;;4.65;;
33740;SDS011;20065;48.380;10.892;2022-12-07T12:32:43;8.43;;;4.20;;
33740;SDS011;20065;48.380;10.892;2022-12-07T12:35:33;8.80;;;4.75;;
33740;SDS011;20065;48.380;10.892;2022-12-07T12:38:30;8.35;;;5.30;;
33740;SDS011;20065;48.380;10.892;2022-12-07T12:50:42;10.30;;;5.75;;
33740;SDS011;20065;48.380;10.892;2022-12-07T12:53:28;11.95;;;5.88;;
33740;SDS011;20065;48.380;10.892;2022-12-07T13:05:25;21.20;;;6.18;;
33740;SDS011;20065;48.380;10.892;2022-12-07T13:08:23;8.90;;;6.05;;
33740;SDS011;20065;48.380;10.892;2022-12-07T13:11:18;10.65;;;5.88;;
33740;SDS011;20065;48.380;10.892;2022-12-07T13:29:18;16.63;;;4.90;;
33740;SDS011;20065;48.380;10.892;2022-12-07T13:32:17;10.18;;;5.72;;
33740;SDS011;20065;48.380;10.892;2022-12-07T13:35:32;9.40;;;5.55;;
33740;SDS011;20065;48.380;10.892;2022-12-07T13:38:32;13.18;;;6.15;;
33740;SDS011;20065;48.380;10.892;2022-12-07T13:41:21;11.57;;;6.13;;
33740;SDS011;20065;48.380;10.892;2022-12-07T13:44:09;10.55;;;5.90;;
33740;SDS011;20065;48.380;10.892;2022-12-07T13:47:11;9.25;;;5.45;;
33740;SDS011;20065;48.380;10.892;2022-12-07T13:50:20;9.98;;;5.85;;
33740;SDS011;20065;48.380;10.892;2022-12-07T13:53:12;12.98;;;5.80;;
33740;SDS011;20065;48.380;10.892;2022-12-07T13:56:00;10.02;;;5.60;;
33740;SDS011;20065;48.380;10.892;2022-12-07T13:58:47;10.80;;;5.15;;
33740;SDS011;20065;48.380;10.892;2022-12-07T14:01:33;10.40;;;5.78;;
33740;SDS011;20065;48.380;10.892;2022-12-07T14:07:27;8.38;;;4.93;;
33740;SDS011;20065;48.380;10.892;2022-12-07T14:13:40;9.95;;;5.15;;
33740;SDS011;20065;48.380;10.892;2022-12-07T14:22:37;10.35;;;6.07;;
33740;SDS011;20065;48.380;10.892;2022-12-07T14:25:25;8.02;;;5.00;;
33740;SDS011;20065;48.380;10.892;2022-12-07T14:28:26;9.85;;;6.07;;
33740;SDS011;20065;48.380;10.892;2022-12-07T14:31:15;9.38;;;5.28;;
33740;SDS011;20065;48.380;10.892;2022-12-07T14:34:11;10.32;;;5.72;;
33740;SDS011;20065;48.380;10.892;2022-12-07T14:36:58;8.65;;;5.43;;
33740;SDS011;20065;48.380;10.892;2022-12-07T14:39:44;9.57;;;6.10;;
33740;SDS011;20065;48.380;10.892;2022-12-07T14:42:30;8.73;;;5.13;;
33740;SDS011;20065;48.380;10.892;2022-12-07T14:45:19;10.45;;;5.55;;
33740;SDS011;20065;48.380;10.892;2022-12-07T14:48:09;7.68;;;4.72;;
33740;SDS011;20065;48.380;10.892;2022-12-07T14:50:58;13.00;;;6.03;;
33740;SDS011;20065;48.380;10.892;2022-12-07T14:53:46;9.10;;;5.15;;
33740;SDS011;20065;48.380;10.892;2022-12-07T14:56:35;8.00;;;5.55;;
33740;SDS011;20065;48.380;10.892;2022-12-07T14:59:21;10.25;;;6.57;;
33740;SDS011;20065;48.380;10.892;2022-12-07T15:02:09;13.20;;;5.10;;
33740;SDS011;20065;48.380;10.892;2022-12-07T15:04:57;8.85;;;5.53;;
33740;SDS011;20065;48.380;10.892;2022-12-07T15:07:46;8.63;;;5.22;;
33740;SDS011;20065;48.380;10.892;2022-12-07T15:10:34;12.27;;;6.18;;
33740;SDS011;20065;48.380;10.892;2022-12-07T15:13:27;11.48;;;5.97;;
33740;SDS011;20065;48.380;10.892;2022-12-07T15:16:32;11.70;;;5.45;;
33740;SDS011;20065;48.380;10.892;2022-12-07T15:19:25;9.98;;;5.65;;
33740;SDS011;20065;48.380;10.892;2022-12-07T15:22:13;10.45;;;5.88;;
33740;SDS011;20065;48.380;10.892;2022-12-07T15:25:04;10.27;;;5.47;;
33740;SDS011;20065;48.380;10.892;2022-12-07T15:27:51;8.63;;;5.22;;
33740;SDS011;20065;48.380;10.892;2022-12-07T15:30:42;10.52;;;5.65;;
33740;SDS011;20065;48.380;10.892;2022-12-07T15:33:30;9.68;;;5.75;;
33740;SDS011;20065;48.380;10.892;2022-12-07T15:36:23;10.60;;;5.95;;
33740;SDS011;20065;48.380;10.892;2022-12-07T15:39:14;10.15;;;6.05;;
33740;SDS011;20065;48.380;10.892;2022-12-07T15:42:01;11.02;;;5.65;;
33740;SDS011;20065;48.380;10.892;2022-12-07T15:44:48;10.60;;;5.35;;
33740;SDS011;20065;48.380;10.892;2022-12-07T15:47:50;10.30;;;5.60;;
33740;SDS011;20065;48.380;10.892;2022-12-07T15:50:40;15.88;;;6.18;;
33740;SDS011;20065;48.380;10.892;2022-12-07T15:53:28;11.85;;;6.38;;
33740;SDS011;20065;48.380;10.892;2022-12-07T15:56:15;8.75;;;5.88;;
33740;SDS011;20065;48.380;10.892;2022-12-07T15:59:02;11.23;;;6.40;;
33740;SDS011;20065;48.380;10.892;2022-12-07T16:01:48;11.90;;;5.88;;
33740;SDS011;20065;48.380;10.892;2022-12-07T16:04:34;12.32;;;7.22;;
33740;SDS011;20065;48.380;10.892;2022-12-07T16:07:20;13.90;;;6.95;;
33740;SDS011;20065;48.380;10.892;2022-12-07T16:10:10;15.90;;;7.40;;
33740;SDS011;20065;48.380;10.892;2022-12-07T16:12:56;13.32;;;6.70;;
33740;SDS011;20065;48.380;10.892;2022-12-07T16:15:43;10.73;;;5.80;;
33740;SDS011;20065;48.380;10.892;2022-12-07T16:18:29;11.25;;;6.90;;
33740;SDS011;20065;48.380;10.892;2022-12-07T16:21:18;13.18;;;6.97;;
33740;SDS011;20065;48.380;10.892;2022-12-07T16:24:08;12.63;;;7.07;;
33740;SDS011;20065;48.380;10.892;2022-12-07T16:33:27;13.85;;;6.47;;
33740;SDS011;20065;48.380;10.892;2022-12-07T16:36:13;9.85;;;6.70;;
33740;SDS011;20065;48.380;10.892;2022-12-07T16:39:03;13.52;;;6.93;;
33740;SDS011;20065;48.380;10.892;2022-12-07T16:41:53;11.68;;;7.15;;
33740;SDS011;20065;48.380;10.892;2022-12-07T16:44:42;14.95;;;7.20;;
33740;SDS011;20065;48.380;10.892;2022-12-07T16:47:29;11.20;;;6.40;;
33740;SDS011;20065;48.380;10.892;2022-12-07T16:50:18;13.93;;;8.40;;
33740;SDS011;20065;48.380;10.892;2022-12-07T16:53:10;11.73;;;6.75;;
33740;SDS011;20065;48.380;10.892;2022-12-07T16:56:00;12.43;;;6.30;;
33740;SDS011;20065;48.380;10.892;2022-12-07T16:58:49;12.30;;;6.68;;
33740;SDS011;20065;48.380;10.892;2022-12-07T17:01:36;14.90;;;8.48;;
33740;SDS011;20065;48.380;10.892;2022-12-07T17:04:23;15.20;;;8.68;;
33740;SDS011;20065;48.380;10.892;2022-12-07T17:07:16;17.33;;;8.45;;
33740;SDS011;20065;48.380;10.892;2022-12-07T17:13:40;24.88;;;14.70;;
33740;SDS011;20065;48.380;10.892;2022-12-07T17:16:46;19.45;;;10.38;;
33740;SDS011;20065;48.380;10.892;2022-12-07T17:19:33;20.20;;;11.18;;
33740;SDS011;20065;48.380;10.892;2022-12-07T17:22:20;14.70;;;8.95;;
33740;SDS011;20065;48.380;10.892;2022-12-07T17:25:07;15.90;;;8.32;;
33740;SDS011;20065;48.380;10.892;2022-12-07T17:27:56;15.45;;;8.27;;
33740;SDS011;20065;48.380;10.892;2022-12-07T17:30:44;16.65;;;9.10;;
33740;SDS011;20065;48.380;10.892;2022-12-07T17:33:32;13.70;;;8.90;;
33740;SDS011;20065;48.380;10.892;2022-12-07T17:36:24;14.43;;;8.90;;
33740;SDS011;20065;48.380;10.892;2022-12-07T17:39:14;15.27;;;8.23;;
33740;SDS011;20065;48.380;10.892;2022-12-07T17:42:06;22.05;;;9.57;;
33740;SDS011;20065;48.380;10.892;2022-12-07T17:45:14;21.30;;;11.35;;
33740;SDS011;20065;48.380;10.892;2022-12-07T17:48:03;20.25;;;11.48;;
33740;SDS011;20065;48.380;10.892;2022-12-07T17:50:52;18.80;;;10.70;;
33740;SDS011;20065;48.380;10.892;2022-12-07T17:53:57;16.65;;;10.15;;
33740;SDS011;20065;48.380;10.892;2022-12-07T17:56:45;28.02;;;13.90;;
33740;SDS011;20065;48.380;10.892;2022-12-07T17:59:35;26.10;;;13.60;;
33740;SDS011;20065;48.380;10.892;2022-12-07T18:02:24;31.05;;;15.93;;
33740;SDS011;20065;48.380;10.892;2022-12-07T18:05:13;25.58;;;13.75;;
33740;SDS011;20065;48.380;10.892;2022-12-07T18:08:00;23.42;;;12.65;;
33740;SDS011;20065;48.380;10.892;2022-12-07T18:10:47;24.58;;;12.57;;
33740;SDS011;20065;48.380;10.892;2022-12-07T18:13:34;23.27;;;13.25;;
33740;SDS011;20065;48.380;10.892;2022-12-07T18:16:24;21.42;;;12.52;;
33740;SDS011;20065;48.380;10.892;2022-12-07T18:19:17;25.58;;;13.07;;
33740;SDS011;20065;48.380;10.892;2022-12-07T18:22:06;26.40;;;13.30;;
33740;SDS011;20065;48.380;10.892;2022-12-07T18:24:53;23.92;;;14.30;;
33740;SDS011;20065;48.380;10.892;2022-12-07T18:27:41;21.27;;;12.60;;
33740;SDS011;20065;48.380;10.892;2022-12-07T18:30:28;21.98;;;11.73;;
33740;SDS011;20065;48.380;10.892;2022-12-07T18:33:17;23.13;;;12.30;;
33740;SDS011;20065;48.380;10.892;2022-12-07T18:36:05;28.30;;;13.43;;
33740;SDS011;20065;48.380;10.892;2022-12-07T18:38:54;21.50;;;12.35;;
33740;SDS011;20065;48.380;10.892;2022-12-07T18:41:41;27.00;;;13.18;;
33740;SDS011;20065;48.380;10.892;2022-12-07T18:44:30;20.92;;;11.95;;
33740;SDS011;20065;48.380;10.892;2022-12-07T18:47:17;21.38;;;12.77;;
33740;SDS011;20065;48.380;10.892;2022-12-07T18:50:07;22.85;;;11.60;;
33740;SDS011;20065;48.380;10.892;2022-12-07T18:53:04;20.35;;;10.68;;
33740;SDS011;20065;48.380;10.892;2022-12-07T18:56:28;21.17;;;12.32;;
33740;SDS011;20065;48.380;10.892;2022-12-07T18:59:12;22.83;;;11.30;;